LIBR/BDS METAR and TAF weather

Enter ICAO airport designator
Station Type Date Time Source
LIBR METAR 2021/05/12 23:50 UTC NOAA

LIBR 122350Z 27011KT CAVOK 16/07 Q1009


Station Type Date Time Source
LIBR Decoded METAR 2021/05/12 23:50 UTC NOAA

Brindisi, Italy (LIBR) 40-39N 017-57E 10M
May 12, 2021 - 07:50 PM EDT / 2021.05.12 2350 UTC
Wind: from the W (270 degrees) at 13 MPH (11 KT):0
Visibility: greater than 7 mile(s):0
Temperature: 60 F (16 C)
Dew Point: 44 F (7 C)
Relative Humidity: 55%
Pressure (altimeter): 29.80 in. Hg (1009 hPa)
ob: LIBR 122350Z 27011KT CAVOK 16/07 Q1009
cycle: 0

Station Type Date Time Source
LIBR TAF 2021/05/12 18:26 UTC NOAA

TAF
AMD LIBR 121818Z 1218/1318 23007KT 9999 SCT040

Example: see airport list